sensor_id;sensor_type;location;lat;lon;timestamp;P1;durP1;ratioP1;P2;durP2;ratioP2
65477;SDS011;53678;39.642;22.430;2023-07-13T00:01:51;21.92;;;9.02;;
65477;SDS011;53678;39.642;22.430;2023-07-13T00:04:17;25.70;;;9.10;;
65477;SDS011;53678;39.642;22.430;2023-07-13T00:06:45;24.92;;;9.82;;
65477;SDS011;53678;39.642;22.430;2023-07-13T00:09:15;19.90;;;9.38;;
65477;SDS011;53678;39.642;22.430;2023-07-13T00:11:42;18.45;;;9.25;;
65477;SDS011;53678;39.642;22.430;2023-07-13T00:14:09;17.70;;;8.25;;
65477;SDS011;53678;39.642;22.430;2023-07-13T00:16:36;18.90;;;9.43;;
65477;SDS011;53678;39.642;22.430;2023-07-13T00:19:03;22.30;;;9.40;;
65477;SDS011;53678;39.642;22.430;2023-07-13T00:21:29;20.15;;;9.43;;
65477;SDS011;53678;39.642;22.430;2023-07-13T00:23:55;22.30;;;9.50;;
65477;SDS011;53678;39.642;22.430;2023-07-13T00:26:21;23.85;;;9.82;;
65477;SDS011;53678;39.642;22.430;2023-07-13T00:28:47;23.90;;;9.30;;
65477;SDS011;53678;39.642;22.430;2023-07-13T00:31:13;23.75;;;9.07;;
65477;SDS011;53678;39.642;22.430;2023-07-13T00:33:42;17.48;;;9.32;;
65477;SDS011;53678;39.642;22.430;2023-07-13T00:36:08;23.27;;;9.10;;
65477;SDS011;53678;39.642;22.430;2023-07-13T00:38:35;24.60;;;8.90;;
65477;SDS011;53678;39.642;22.430;2023-07-13T00:41:01;23.40;;;9.32;;
65477;SDS011;53678;39.642;22.430;2023-07-13T00:43:28;21.30;;;9.40;;
65477;SDS011;53678;39.642;22.430;2023-07-13T00:48:26;18.50;;;8.13;;
65477;SDS011;53678;39.642;22.430;2023-07-13T00:50:58;16.10;;;8.25;;
65477;SDS011;53678;39.642;22.430;2023-07-13T00:53:26;16.30;;;8.57;;
65477;SDS011;53678;39.642;22.430;2023-07-13T00:55:55;23.80;;;9.43;;
65477;SDS011;53678;39.642;22.430;2023-07-13T00:58:22;17.27;;;8.50;;
65477;SDS011;53678;39.642;22.430;2023-07-13T01:00:49;14.40;;;8.43;;
65477;SDS011;53678;39.642;22.430;2023-07-13T01:03:16;14.65;;;8.15;;
65477;SDS011;53678;39.642;22.430;2023-07-13T01:05:44;16.13;;;8.50;;
65477;SDS011;53678;39.642;22.430;2023-07-13T01:08:14;16.95;;;7.88;;
65477;SDS011;53678;39.642;22.430;2023-07-13T01:10:40;13.52;;;8.30;;
65477;SDS011;53678;39.642;22.430;2023-07-13T01:13:07;14.85;;;7.90;;
65477;SDS011;53678;39.642;22.430;2023-07-13T01:18:07;12.25;;;7.72;;
65477;SDS011;53678;39.642;22.430;2023-07-13T01:20:36;15.85;;;7.60;;
65477;SDS011;53678;39.642;22.430;2023-07-13T01:23:04;16.25;;;8.00;;
65477;SDS011;53678;39.642;22.430;2023-07-13T01:25:32;14.55;;;7.93;;
65477;SDS011;53678;39.642;22.430;2023-07-13T01:27:57;19.60;;;8.70;;
65477;SDS011;53678;39.642;22.430;2023-07-13T01:30:24;15.15;;;8.30;;
65477;SDS011;53678;39.642;22.430;2023-07-13T01:32:49;20.02;;;8.45;;
65477;SDS011;53678;39.642;22.430;2023-07-13T01:35:15;11.32;;;7.75;;
65477;SDS011;53678;39.642;22.430;2023-07-13T01:37:42;15.90;;;8.10;;
65477;SDS011;53678;39.642;22.430;2023-07-13T01:40:10;12.05;;;7.50;;
65477;SDS011;53678;39.642;22.430;2023-07-13T01:42:37;16.88;;;8.02;;
65477;SDS011;53678;39.642;22.430;2023-07-13T01:45:03;15.90;;;8.27;;
65477;SDS011;53678;39.642;22.430;2023-07-13T01:47:29;22.95;;;8.65;;
65477;SDS011;53678;39.642;22.430;2023-07-13T01:49:56;16.52;;;8.35;;
65477;SDS011;53678;39.642;22.430;2023-07-13T01:52:22;20.08;;;9.10;;
65477;SDS011;53678;39.642;22.430;2023-07-13T01:54:48;14.10;;;7.78;;
65477;SDS011;53678;39.642;22.430;2023-07-13T01:57:16;13.75;;;7.40;;
65477;SDS011;53678;39.642;22.430;2023-07-13T01:59:41;17.75;;;8.38;;
65477;SDS011;53678;39.642;22.430;2023-07-13T02:02:07;21.73;;;9.88;;
65477;SDS011;53678;39.642;22.430;2023-07-13T02:04:33;16.23;;;8.55;;
65477;SDS011;53678;39.642;22.430;2023-07-13T02:06:59;15.27;;;8.15;;
65477;SDS011;53678;39.642;22.430;2023-07-13T02:09:25;14.20;;;8.13;;
65477;SDS011;53678;39.642;22.430;2023-07-13T02:11:50;16.27;;;8.15;;
65477;SDS011;53678;39.642;22.430;2023-07-13T02:14:16;16.75;;;9.23;;
65477;SDS011;53678;39.642;22.430;2023-07-13T02:16:42;18.13;;;8.48;;
65477;SDS011;53678;39.642;22.430;2023-07-13T02:19:08;23.33;;;9.20;;
65477;SDS011;53678;39.642;22.430;2023-07-13T02:21:34;21.20;;;8.15;;
65477;SDS011;53678;39.642;22.430;2023-07-13T02:24:00;23.83;;;8.95;;
65477;SDS011;53678;39.642;22.430;2023-07-13T02:26:26;21.27;;;8.73;;
65477;SDS011;53678;39.642;22.430;2023-07-13T02:28:52;14.13;;;8.00;;
65477;SDS011;53678;39.642;22.430;2023-07-13T02:31:19;19.25;;;8.75;;
65477;SDS011;53678;39.642;22.430;2023-07-13T02:33:45;20.30;;;8.80;;
65477;SDS011;53678;39.642;22.430;2023-07-13T02:36:11;19.95;;;9.13;;
65477;SDS011;53678;39.642;22.430;2023-07-13T02:38:37;15.13;;;7.88;;
65477;SDS011;53678;39.642;22.430;2023-07-13T02:41:04;13.82;;;8.15;;
65477;SDS011;53678;39.642;22.430;2023-07-13T02:43:30;14.40;;;9.07;;
65477;SDS011;53678;39.642;22.430;2023-07-13T02:45:56;18.98;;;9.40;;
65477;SDS011;53678;39.642;22.430;2023-07-13T02:48:25;15.98;;;8.80;;
65477;SDS011;53678;39.642;22.430;2023-07-13T02:50:51;18.30;;;8.75;;
65477;SDS011;53678;39.642;22.430;2023-07-13T02:53:17;21.48;;;9.23;;
65477;SDS011;53678;39.642;22.430;2023-07-13T02:55:42;25.35;;;9.30;;
65477;SDS011;53678;39.642;22.430;2023-07-13T02:58:12;20.17;;;9.35;;
65477;SDS011;53678;39.642;22.430;2023-07-13T03:00:42;13.15;;;8.65;;
65477;SDS011;53678;39.642;22.430;2023-07-13T03:03:12;18.42;;;8.65;;
65477;SDS011;53678;39.642;22.430;2023-07-13T03:05:42;20.80;;;9.35;;
65477;SDS011;53678;39.642;22.430;2023-07-13T03:08:11;16.33;;;8.27;;
65477;SDS011;53678;39.642;22.430;2023-07-13T03:10:40;16.10;;;8.32;;
65477;SDS011;53678;39.642;22.430;2023-07-13T03:13:08;16.65;;;8.43;;
65477;SDS011;53678;39.642;22.430;2023-07-13T03:15:34;20.85;;;9.50;;
65477;SDS011;53678;39.642;22.430;2023-07-13T03:18:00;16.35;;;8.20;;
65477;SDS011;53678;39.642;22.430;2023-07-13T03:20:25;15.00;;;8.77;;
65477;SDS011;53678;39.642;22.430;2023-07-13T03:22:51;23.25;;;9.05;;
65477;SDS011;53678;39.642;22.430;2023-07-13T03:25:18;14.23;;;8.93;;
65477;SDS011;53678;39.642;22.430;2023-07-13T03:27:43;19.60;;;9.57;;
65477;SDS011;53678;39.642;22.430;2023-07-13T03:30:10;18.73;;;8.82;;
65477;SDS011;53678;39.642;22.430;2023-07-13T03:32:36;18.98;;;8.52;;
65477;SDS011;53678;39.642;22.430;2023-07-13T03:35:02;21.52;;;8.80;;
65477;SDS011;53678;39.642;22.430;2023-07-13T03:37:30;16.15;;;9.15;;
65477;SDS011;53678;39.642;22.430;2023-07-13T03:39:56;20.20;;;8.93;;
65477;SDS011;53678;39.642;22.430;2023-07-13T03:42:22;21.40;;;8.30;;
65477;SDS011;53678;39.642;22.430;2023-07-13T03:44:48;24.02;;;9.00;;
65477;SDS011;53678;39.642;22.430;2023-07-13T03:47:18;15.75;;;8.43;;
65477;SDS011;53678;39.642;22.430;2023-07-13T03:49:46;17.27;;;8.05;;
65477;SDS011;53678;39.642;22.430;2023-07-13T03:52:12;14.23;;;8.63;;
65477;SDS011;53678;39.642;22.430;2023-07-13T03:54:38;26.30;;;10.18;;
65477;SDS011;53678;39.642;22.430;2023-07-13T03:57:05;21.75;;;9.38;;
65477;SDS011;53678;39.642;22.430;2023-07-13T03:59:34;23.55;;;10.35;;
65477;SDS011;53678;39.642;22.430;2023-07-13T04:02:00;25.17;;;10.27;;
65477;SDS011;53678;39.642;22.430;2023-07-13T04:04:27;21.30;;;8.90;;
65477;SDS011;53678;39.642;22.430;2023-07-13T04:06:52;18.80;;;9.05;;
65477;SDS011;53678;39.642;22.430;2023-07-13T04:09:18;26.45;;;10.18;;
65477;SDS011;53678;39.642;22.430;2023-07-13T04:11:44;17.67;;;10.40;;
65477;SDS011;53678;39.642;22.430;2023-07-13T04:14:10;22.35;;;9.50;;
65477;SDS011;53678;39.642;22.430;2023-07-13T04:16:35;20.98;;;9.15;;
65477;SDS011;53678;39.642;22.430;2023-07-13T04:19:01;25.30;;;9.57;;
65477;SDS011;53678;39.642;22.430;2023-07-13T04:21:28;22.77;;;10.73;;
65477;SDS011;53678;39.642;22.430;2023-07-13T04:23:55;23.83;;;9.30;;
65477;SDS011;53678;39.642;22.430;2023-07-13T04:26:21;19.48;;;9.45;;
65477;SDS011;53678;39.642;22.430;2023-07-13T04:28:48;20.52;;;9.43;;
65477;SDS011;53678;39.642;22.430;2023-07-13T04:31:15;31.50;;;10.23;;
65477;SDS011;53678;39.642;22.430;2023-07-13T04:33:41;21.75;;;10.18;;
65477;SDS011;53678;39.642;22.430;2023-07-13T04:36:08;26.35;;;9.65;;
65477;SDS011;53678;39.642;22.430;2023-07-13T04:38:35;18.98;;;9.65;;
65477;SDS011;53678;39.642;22.430;2023-07-13T04:41:02;13.85;;;8.63;;
65477;SDS011;53678;39.642;22.430;2023-07-13T04:43:29;25.25;;;9.77;;
65477;SDS011;53678;39.642;22.430;2023-07-13T04:45:56;17.98;;;9.23;;
65477;SDS011;53678;39.642;22.430;2023-07-13T04:48:22;16.67;;;9.18;;
65477;SDS011;53678;39.642;22.430;2023-07-13T04:50:53;20.30;;;10.75;;
65477;SDS011;53678;39.642;22.430;2023-07-13T04:53:20;29.83;;;10.40;;
65477;SDS011;53678;39.642;22.430;2023-07-13T04:55:46;18.10;;;9.25;;
65477;SDS011;53678;39.642;22.430;2023-07-13T04:58:12;26.00;;;10.13;;
65477;SDS011;53678;39.642;22.430;2023-07-13T05:00:38;18.23;;;9.38;;
65477;SDS011;53678;39.642;22.430;2023-07-13T05:03:04;18.67;;;9.23;;
65477;SDS011;53678;39.642;22.430;2023-07-13T05:05:30;21.67;;;10.07;;
65477;SDS011;53678;39.642;22.430;2023-07-13T05:07:56;28.15;;;10.27;;
65477;SDS011;53678;39.642;22.430;2023-07-13T05:10:22;22.17;;;9.80;;
65477;SDS011;53678;39.642;22.430;2023-07-13T05:12:48;36.47;;;11.43;;
65477;SDS011;53678;39.642;22.430;2023-07-13T05:15:14;25.75;;;10.40;;
65477;SDS011;53678;39.642;22.430;2023-07-13T05:17:40;22.27;;;9.90;;
65477;SDS011;53678;39.642;22.430;2023-07-13T05:20:07;21.42;;;10.00;;
65477;SDS011;53678;39.642;22.430;2023-07-13T05:22:33;21.10;;;9.45;;
65477;SDS011;53678;39.642;22.430;2023-07-13T05:25:00;23.13;;;10.00;;
65477;SDS011;53678;39.642;22.430;2023-07-13T05:27:27;20.65;;;8.68;;
65477;SDS011;53678;39.642;22.430;2023-07-13T05:29:53;21.95;;;8.70;;
65477;SDS011;53678;39.642;22.430;2023-07-13T05:32:18;19.02;;;8.55;;
65477;SDS011;53678;39.642;22.430;2023-07-13T05:34:44;15.73;;;8.07;;
65477;SDS011;53678;39.642;22.430;2023-07-13T05:37:10;22.02;;;9.18;;
65477;SDS011;53678;39.642;22.430;2023-07-13T05:39:35;19.98;;;8.45;;
65477;SDS011;53678;39.642;22.430;2023-07-13T05:42:01;17.45;;;7.95;;
65477;SDS011;53678;39.642;22.430;2023-07-13T05:44:27;19.65;;;8.48;;
65477;SDS011;53678;39.642;22.430;2023-07-13T05:46:53;20.95;;;8.30;;
65477;SDS011;53678;39.642;22.430;2023-07-13T05:49:21;15.10;;;7.53;;
65477;SDS011;53678;39.642;22.430;2023-07-13T05:51:47;17.92;;;8.50;;
65477;SDS011;53678;39.642;22.430;2023-07-13T05:54:13;18.92;;;8.65;;
65477;SDS011;53678;39.642;22.430;2023-07-13T05:56:38;18.85;;;9.15;;
65477;SDS011;53678;39.642;22.430;2023-07-13T05:59:04;23.13;;;10.35;;
65477;SDS011;53678;39.642;22.430;2023-07-13T06:01:30;20.20;;;8.13;;
65477;SDS011;53678;39.642;22.430;2023-07-13T06:03:56;18.50;;;8.68;;
65477;SDS011;53678;39.642;22.430;2023-07-13T06:06:22;25.55;;;9.27;;
65477;SDS011;53678;39.642;22.430;2023-07-13T06:08:48;23.05;;;8.75;;
65477;SDS011;53678;39.642;22.430;2023-07-13T06:11:16;22.73;;;8.13;;
65477;SDS011;53678;39.642;22.430;2023-07-13T06:13:44;18.02;;;7.95;;
65477;SDS011;53678;39.642;22.430;2023-07-13T06:16:10;18.88;;;8.82;;
65477;SDS011;53678;39.642;22.430;2023-07-13T06:18:37;16.48;;;8.68;;
65477;SDS011;53678;39.642;22.430;2023-07-13T06:21:07;17.98;;;7.95;;
65477;SDS011;53678;39.642;22.430;2023-07-13T06:23:36;16.13;;;8.07;;
65477;SDS011;53678;39.642;22.430;2023-07-13T06:26:03;16.95;;;7.72;;
65477;SDS011;53678;39.642;22.430;2023-07-13T06:28:30;20.25;;;9.88;;
65477;SDS011;53678;39.642;22.430;2023-07-13T06:30:57;14.57;;;8.52;;
65477;SDS011;53678;39.642;22.430;2023-07-13T06:33:23;26.67;;;8.38;;
65477;SDS011;53678;39.642;22.430;2023-07-13T06:35:49;22.58;;;8.32;;
65477;SDS011;53678;39.642;22.430;2023-07-13T06:38:15;16.77;;;8.13;;
65477;SDS011;53678;39.642;22.430;2023-07-13T06:40:41;18.65;;;9.07;;
65477;SDS011;53678;39.642;22.430;2023-07-13T06:43:07;16.67;;;8.18;;
65477;SDS011;53678;39.642;22.430;2023-07-13T06:45:40;19.38;;;8.43;;
65477;SDS011;53678;39.642;22.430;2023-07-13T06:48:11;17.50;;;7.88;;
65477;SDS011;53678;39.642;22.430;2023-07-13T06:50:36;14.20;;;7.57;;
65477;SDS011;53678;39.642;22.430;2023-07-13T06:53:02;15.23;;;8.70;;
65477;SDS011;53678;39.642;22.430;2023-07-13T06:55:28;16.15;;;8.48;;
65477;SDS011;53678;39.642;22.430;2023-07-13T06:57:54;15.43;;;7.50;;
65477;SDS011;53678;39.642;22.430;2023-07-13T07:00:19;19.77;;;8.77;;
65477;SDS011;53678;39.642;22.430;2023-07-13T07:02:46;18.23;;;8.55;;
65477;SDS011;53678;39.642;22.430;2023-07-13T07:05:11;19.98;;;8.63;;
65477;SDS011;53678;39.642;22.430;2023-07-13T07:07:37;15.05;;;8.38;;
65477;SDS011;53678;39.642;22.430;2023-07-13T07:10:03;15.23;;;7.80;;
65477;SDS011;53678;39.642;22.430;2023-07-13T07:12:29;16.70;;;7.50;;
65477;SDS011;53678;39.642;22.430;2023-07-13T07:14:54;13.13;;;7.32;;
65477;SDS011;53678;39.642;22.430;2023-07-13T07:17:20;15.35;;;8.43;;
65477;SDS011;53678;39.642;22.430;2023-07-13T07:19:46;16.45;;;8.48;;
65477;SDS011;53678;39.642;22.430;2023-07-13T07:22:12;12.38;;;7.60;;
65477;SDS011;53678;39.642;22.430;2023-07-13T07:24:37;15.05;;;8.60;;
65477;SDS011;53678;39.642;22.430;2023-07-13T07:27:03;18.92;;;8.18;;
65477;SDS011;53678;39.642;22.430;2023-07-13T07:29:29;19.58;;;8.38;;
65477;SDS011;53678;39.642;22.430;2023-07-13T07:31:55;15.98;;;7.70;;
65477;SDS011;53678;39.642;22.430;2023-07-13T07:34:20;19.48;;;8.55;;
65477;SDS011;53678;39.642;22.430;2023-07-13T07:36:46;15.40;;;7.50;;
65477;SDS011;53678;39.642;22.430;2023-07-13T07:39:12;18.42;;;8.93;;
65477;SDS011;53678;39.642;22.430;2023-07-13T07:41:38;16.90;;;8.35;;
65477;SDS011;53678;39.642;22.430;2023-07-13T07:44:03;13.68;;;7.90;;
65477;SDS011;53678;39.642;22.430;2023-07-13T07:46:30;16.08;;;8.30;;
65477;SDS011;53678;39.642;22.430;2023-07-13T07:48:56;15.60;;;8.27;;
65477;SDS011;53678;39.642;22.430;2023-07-13T07:51:22;14.82;;;7.95;;
65477;SDS011;53678;39.642;22.430;2023-07-13T07:53:48;14.38;;;8.02;;
65477;SDS011;53678;39.642;22.430;2023-07-13T07:56:14;10.32;;;7.32;;
65477;SDS011;53678;39.642;22.430;2023-07-13T07:58:41;15.98;;;7.97;;
65477;SDS011;53678;39.642;22.430;2023-07-13T08:01:07;11.07;;;7.25;;
65477;SDS011;53678;39.642;22.430;2023-07-13T08:03:33;17.77;;;7.55;;
65477;SDS011;53678;39.642;22.430;2023-07-13T08:05:59;12.38;;;7.45;;
65477;SDS011;53678;39.642;22.430;2023-07-13T08:08:25;13.10;;;7.28;;
65477;SDS011;53678;39.642;22.430;2023-07-13T08:10:51;10.82;;;7.97;;
65477;SDS011;53678;39.642;22.430;2023-07-13T08:13:17;13.85;;;7.90;;
65477;SDS011;53678;39.642;22.430;2023-07-13T08:15:42;13.50;;;7.38;;
65477;SDS011;53678;39.642;22.430;2023-07-13T08:18:08;16.05;;;8.20;;
65477;SDS011;53678;39.642;22.430;2023-07-13T08:20:40;14.10;;;8.05;;
65477;SDS011;53678;39.642;22.430;2023-07-13T08:23:06;12.50;;;7.03;;
65477;SDS011;53678;39.642;22.430;2023-07-13T08:25:34;14.25;;;7.20;;
65477;SDS011;53678;39.642;22.430;2023-07-13T08:28:00;11.15;;;7.50;;
65477;SDS011;53678;39.642;22.430;2023-07-13T08:30:27;10.18;;;6.28;;
65477;SDS011;53678;39.642;22.430;2023-07-13T08:32:53;11.05;;;6.70;;
65477;SDS011;53678;39.642;22.430;2023-07-13T08:35:19;9.82;;;6.95;;
65477;SDS011;53678;39.642;22.430;2023-07-13T08:37:44;12.40;;;6.80;;
65477;SDS011;53678;39.642;22.430;2023-07-13T08:40:10;13.75;;;7.05;;
65477;SDS011;53678;39.642;22.430;2023-07-13T08:42:46;12.95;;;7.32;;
65477;SDS011;53678;39.642;22.430;2023-07-13T08:45:23;12.00;;;6.32;;
65477;SDS011;53678;39.642;22.430;2023-07-13T08:50:35;9.60;;;6.53;;
65477;SDS011;53678;39.642;22.430;2023-07-13T08:53:12;10.85;;;7.00;;
65477;SDS011;53678;39.642;22.430;2023-07-13T08:55:39;10.32;;;6.50;;
65477;SDS011;53678;39.642;22.430;2023-07-13T08:58:12;9.65;;;6.25;;
65477;SDS011;53678;39.642;22.430;2023-07-13T09:00:44;10.35;;;6.32;;
65477;SDS011;53678;39.642;22.430;2023-07-13T09:03:18;10.85;;;6.50;;
65477;SDS011;53678;39.642;22.430;2023-07-13T09:05:52;12.23;;;6.95;;
65477;SDS011;53678;39.642;22.430;2023-07-13T09:16:19;13.70;;;6.60;;
65477;SDS011;53678;39.642;22.430;2023-07-13T09:18:47;15.57;;;6.93;;
65477;SDS011;53678;39.642;22.430;2023-07-13T09:21:27;11.48;;;7.20;;
65477;SDS011;53678;39.642;22.430;2023-07-13T09:23:59;12.55;;;7.35;;
65477;SDS011;53678;39.642;22.430;2023-07-13T09:26:27;12.70;;;7.20;;
65477;SDS011;53678;39.642;22.430;2023-07-13T09:29:23;18.67;;;7.15;;
65477;SDS011;53678;39.642;22.430;2023-07-13T09:31:55;13.77;;;7.10;;
65477;SDS011;53678;39.642;22.430;2023-07-13T09:34:23;14.40;;;7.00;;
65477;SDS011;53678;39.642;22.430;2023-07-13T09:36:51;12.55;;;6.47;;
65477;SDS011;53678;39.642;22.430;2023-07-13T09:39:23;9.82;;;6.32;;
65477;SDS011;53678;39.642;22.430;2023-07-13T09:44:27;12.40;;;6.68;;
65477;SDS011;53678;39.642;22.430;2023-07-13T09:46:55;9.02;;;5.60;;
65477;SDS011;53678;39.642;22.430;2023-07-13T09:49:29;13.10;;;6.20;;
65477;SDS011;53678;39.642;22.430;2023-07-13T09:52:00;11.00;;;5.65;;
65477;SDS011;53678;39.642;22.430;2023-07-13T09:54:28;16.08;;;6.32;;
65477;SDS011;53678;39.642;22.430;2023-07-13T09:56:55;11.75;;;5.38;;
65477;SDS011;53678;39.642;22.430;2023-07-13T09:59:22;9.55;;;5.80;;
65477;SDS011;53678;39.642;22.430;2023-07-13T10:01:49;10.52;;;5.47;;
65477;SDS011;53678;39.642;22.430;2023-07-13T10:04:19;10.88;;;5.60;;
65477;SDS011;53678;39.642;22.430;2023-07-13T10:06:47;8.13;;;5.25;;
65477;SDS011;53678;39.642;22.430;2023-07-13T10:09:15;12.20;;;5.20;;
65477;SDS011;53678;39.642;22.430;2023-07-13T10:11:44;12.57;;;6.30;;
65477;SDS011;53678;39.642;22.430;2023-07-13T10:14:17;10.18;;;5.25;;
65477;SDS011;53678;39.642;22.430;2023-07-13T10:16:46;10.05;;;5.40;;
65477;SDS011;53678;39.642;22.430;2023-07-13T10:19:16;8.98;;;5.57;;
65477;SDS011;53678;39.642;22.430;2023-07-13T10:21:58;10.32;;;5.95;;
65477;SDS011;53678;39.642;22.430;2023-07-13T10:24:26;8.68;;;5.57;;
65477;SDS011;53678;39.642;22.430;2023-07-13T10:29:44;12.07;;;5.55;;
65477;SDS011;53678;39.642;22.430;2023-07-13T10:32:11;8.35;;;5.32;;
65477;SDS011;53678;39.642;22.430;2023-07-13T10:34:38;6.88;;;4.82;;
65477;SDS011;53678;39.642;22.430;2023-07-13T10:37:07;8.27;;;5.28;;
65477;SDS011;53678;39.642;22.430;2023-07-13T10:39:43;10.75;;;4.80;;
65477;SDS011;53678;39.642;22.430;2023-07-13T10:42:11;8.73;;;5.75;;
65477;SDS011;53678;39.642;22.430;2023-07-13T10:44:40;10.60;;;5.50;;
65477;SDS011;53678;39.642;22.430;2023-07-13T10:47:07;7.75;;;5.30;;
65477;SDS011;53678;39.642;22.430;2023-07-13T10:52:05;8.20;;;5.90;;
65477;SDS011;53678;39.642;22.430;2023-07-13T10:54:32;8.18;;;5.22;;
65477;SDS011;53678;39.642;22.430;2023-07-13T10:59:48;9.90;;;6.00;;
65477;SDS011;53678;39.642;22.430;2023-07-13T11:02:34;9.43;;;5.60;;
65477;SDS011;53678;39.642;22.430;2023-07-13T11:05:01;8.57;;;5.20;;
65477;SDS011;53678;39.642;22.430;2023-07-13T11:10:55;6.50;;;4.90;;
65477;SDS011;53678;39.642;22.430;2023-07-13T11:13:38;11.32;;;5.43;;
65477;SDS011;53678;39.642;22.430;2023-07-13T11:18:47;9.85;;;5.50;;
65477;SDS011;53678;39.642;22.430;2023-07-13T11:23:42;12.55;;;5.85;;
65477;SDS011;53678;39.642;22.430;2023-07-13T11:31:56;10.30;;;5.10;;
65477;SDS011;53678;39.642;22.430;2023-07-13T11:34:28;7.60;;;5.80;;
65477;SDS011;53678;39.642;22.430;2023-07-13T11:36:59;11.40;;;5.57;;
65477;SDS011;53678;39.642;22.430;2023-07-13T11:39:32;13.93;;;5.38;;
65477;SDS011;53678;39.642;22.430;2023-07-13T11:42:02;9.40;;;5.28;;
65477;SDS011;53678;39.642;22.430;2023-07-13T11:44:31;8.90;;;5.53;;
65477;SDS011;53678;39.642;22.430;2023-07-13T11:46:59;6.90;;;5.03;;
65477;SDS011;53678;39.642;22.430;2023-07-13T11:49:36;8.27;;;5.45;;
65477;SDS011;53678;39.642;22.430;2023-07-13T11:52:11;7.63;;;5.35;;
65477;SDS011;53678;39.642;22.430;2023-07-13T11:55:14;6.38;;;4.85;;
65477;SDS011;53678;39.642;22.430;2023-07-13T11:57:41;8.25;;;5.25;;
65477;SDS011;53678;39.642;22.430;2023-07-13T12:00:15;8.68;;;5.30;;
65477;SDS011;53678;39.642;22.430;2023-07-13T12:02:44;9.90;;;5.03;;
65477;SDS011;53678;39.642;22.430;2023-07-13T12:05:15;13.18;;;5.40;;
65477;SDS011;53678;39.642;22.430;2023-07-13T12:07:43;8.50;;;5.18;;
65477;SDS011;53678;39.642;22.430;2023-07-13T12:12:58;11.02;;;5.78;;
65477;SDS011;53678;39.642;22.430;2023-07-13T12:15:28;12.30;;;4.88;;
65477;SDS011;53678;39.642;22.430;2023-07-13T12:18:02;7.80;;;5.18;;
65477;SDS011;53678;39.642;22.430;2023-07-13T12:20:30;8.00;;;4.60;;
65477;SDS011;53678;39.642;22.430;2023-07-13T12:23:00;6.85;;;4.65;;
65477;SDS011;53678;39.642;22.430;2023-07-13T12:25:27;8.10;;;4.60;;
65477;SDS011;53678;39.642;22.430;2023-07-13T12:27:54;8.38;;;5.28;;
65477;SDS011;53678;39.642;22.430;2023-07-13T12:30:29;8.10;;;4.90;;
65477;SDS011;53678;39.642;22.430;2023-07-13T12:32:59;8.02;;;5.43;;
65477;SDS011;53678;39.642;22.430;2023-07-13T12:35:30;7.28;;;5.63;;
65477;SDS011;53678;39.642;22.430;2023-07-13T12:37:58;6.75;;;4.88;;
65477;SDS011;53678;39.642;22.430;2023-07-13T12:40:28;7.90;;;4.80;;
65477;SDS011;53678;39.642;22.430;2023-07-13T12:42:58;5.80;;;4.28;;
65477;SDS011;53678;39.642;22.430;2023-07-13T12:45:25;8.43;;;5.10;;
65477;SDS011;53678;39.642;22.430;2023-07-13T12:48:03;11.33;;;4.80;;
65477;SDS011;53678;39.642;22.430;2023-07-13T12:50:40;6.47;;;4.40;;
65477;SDS011;53678;39.642;22.430;2023-07-13T12:53:15;7.55;;;5.10;;
65477;SDS011;53678;39.642;22.430;2023-07-13T12:55:49;5.60;;;4.50;;
65477;SDS011;53678;39.642;22.430;2023-07-13T12:58:30;7.68;;;5.03;;
65477;SDS011;53678;39.642;22.430;2023-07-13T13:00:57;7.60;;;4.70;;
65477;SDS011;53678;39.642;22.430;2023-07-13T13:03:34;8.75;;;4.85;;
65477;SDS011;53678;39.642;22.430;2023-07-13T13:08:41;6.90;;;4.63;;
65477;SDS011;53678;39.642;22.430;2023-07-13T13:11:08;7.95;;;4.32;;
65477;SDS011;53678;39.642;22.430;2023-07-13T13:13:35;10.15;;;4.80;;
65477;SDS011;53678;39.642;22.430;2023-07-13T13:18:59;8.43;;;4.50;;
65477;SDS011;53678;39.642;22.430;2023-07-13T13:21:49;8.50;;;4.95;;
65477;SDS011;53678;39.642;22.430;2023-07-13T13:24:19;6.30;;;4.57;;
65477;SDS011;53678;39.642;22.430;2023-07-13T13:26:47;8.85;;;5.05;;
65477;SDS011;53678;39.642;22.430;2023-07-13T13:29:14;9.25;;;4.40;;
65477;SDS011;53678;39.642;22.430;2023-07-13T13:31:44;6.65;;;4.35;;
65477;SDS011;53678;39.642;22.430;2023-07-13T13:34:11;8.02;;;4.85;;
65477;SDS011;53678;39.642;22.430;2023-07-13T13:36:39;7.55;;;4.13;;
65477;SDS011;53678;39.642;22.430;2023-07-13T13:39:28;6.35;;;4.28;;
65477;SDS011;53678;39.642;22.430;2023-07-13T13:41:59;8.02;;;4.22;;
65477;SDS011;53678;39.642;22.430;2023-07-13T13:44:24;7.45;;;4.53;;
65477;SDS011;53678;39.642;22.430;2023-07-13T13:46:51;7.47;;;4.75;;
65477;SDS011;53678;39.642;22.430;2023-07-13T13:49:21;9.38;;;4.63;;
65477;SDS011;53678;39.642;22.430;2023-07-13T13:51:49;9.15;;;4.85;;
65477;SDS011;53678;39.642;22.430;2023-07-13T13:54:16;6.70;;;4.63;;
65477;SDS011;53678;39.642;22.430;2023-07-13T13:56:43;7.97;;;4.53;;
65477;SDS011;53678;39.642;22.430;2023-07-13T13:59:10;7.15;;;4.60;;
65477;SDS011;53678;39.642;22.430;2023-07-13T14:01:37;5.75;;;4.25;;
65477;SDS011;53678;39.642;22.430;2023-07-13T14:04:03;6.82;;;4.35;;
65477;SDS011;53678;39.642;22.430;2023-07-13T14:06:31;9.80;;;4.47;;
65477;SDS011;53678;39.642;22.430;2023-07-13T14:08:57;7.97;;;4.50;;
65477;SDS011;53678;39.642;22.430;2023-07-13T14:11:23;7.93;;;5.20;;
65477;SDS011;53678;39.642;22.430;2023-07-13T14:13:53;9.18;;;5.00;;
65477;SDS011;53678;39.642;22.430;2023-07-13T14:16:21;10.70;;;4.78;;
65477;SDS011;53678;39.642;22.430;2023-07-13T14:21:21;8.70;;;4.80;;
65477;SDS011;53678;39.642;22.430;2023-07-13T14:23:47;6.68;;;4.60;;
65477;SDS011;53678;39.642;22.430;2023-07-13T14:28:43;5.53;;;4.30;;
65477;SDS011;53678;39.642;22.430;2023-07-13T14:31:14;9.52;;;4.70;;
65477;SDS011;53678;39.642;22.430;2023-07-13T14:33:41;9.18;;;4.93;;
65477;SDS011;53678;39.642;22.430;2023-07-13T14:38:55;5.53;;;3.83;;
65477;SDS011;53678;39.642;22.430;2023-07-13T14:41:22;6.90;;;4.00;;
65477;SDS011;53678;39.642;22.430;2023-07-13T14:43:49;9.35;;;4.30;;
65477;SDS011;53678;39.642;22.430;2023-07-13T14:46:28;5.47;;;4.32;;
65477;SDS011;53678;39.642;22.430;2023-07-13T14:49:05;8.85;;;4.57;;
65477;SDS011;53678;39.642;22.430;2023-07-13T14:51:51;9.10;;;4.30;;
65477;SDS011;53678;39.642;22.430;2023-07-13T14:54:17;6.25;;;4.07;;
65477;SDS011;53678;39.642;22.430;2023-07-13T14:56:43;7.47;;;3.97;;
65477;SDS011;53678;39.642;22.430;2023-07-13T14:59:09;6.80;;;4.07;;
65477;SDS011;53678;39.642;22.430;2023-07-13T15:01:36;7.10;;;4.10;;
65477;SDS011;53678;39.642;22.430;2023-07-13T15:04:02;7.28;;;4.65;;
65477;SDS011;53678;39.642;22.430;2023-07-13T15:06:29;8.68;;;3.83;;
65477;SDS011;53678;39.642;22.430;2023-07-13T15:08:56;5.93;;;4.10;;
65477;SDS011;53678;39.642;22.430;2023-07-13T15:11:22;6.90;;;4.10;;
65477;SDS011;53678;39.642;22.430;2023-07-13T15:13:48;5.32;;;3.88;;
65477;SDS011;53678;39.642;22.430;2023-07-13T15:18:49;8.25;;;4.20;;
65477;SDS011;53678;39.642;22.430;2023-07-13T15:21:20;8.68;;;3.95;;
65477;SDS011;53678;39.642;22.430;2023-07-13T15:23:48;9.63;;;3.87;;
65477;SDS011;53678;39.642;22.430;2023-07-13T15:26:14;6.47;;;3.90;;
65477;SDS011;53678;39.642;22.430;2023-07-13T15:28:42;9.23;;;4.00;;